sensor_id;sensor_type;location;lat;lon;timestamp;pressure;altitude;pressure_sealevel;temperature;humidity
30073;BME280;16897;52.422;13.678;2022-08-21T00:03:51;101160.88;;;23.31;59.38
30073;BME280;16897;52.422;13.678;2022-08-21T00:07:53;101107.38;;;22.98;59.27
30073;BME280;16897;52.422;13.678;2022-08-21T00:11:54;101138.97;;;23.19;59.79
30073;BME280;16897;52.422;13.678;2022-08-21T00:15:56;101083.63;;;22.87;59.47
30073;BME280;16897;52.422;13.678;2022-08-21T00:19:58;101085.97;;;22.90;59.48
30073;BME280;16897;52.422;13.678;2022-08-21T00:24:07;101136.00;;;23.22;59.45
30073;BME280;16897;52.422;13.678;2022-08-21T00:28:08;101041.84;;;22.61;59.67
30073;BME280;16897;52.422;13.678;2022-08-21T00:32:10;101111.03;;;22.97;59.85
30073;BME280;16897;52.422;13.678;2022-08-21T00:36:12;101107.44;;;22.88;59.48
30073;BME280;16897;52.422;13.678;2022-08-21T00:40:21;101115.56;;;22.87;59.70
30073;BME280;16897;52.422;13.678;2022-08-21T00:44:23;101145.34;;;23.00;59.90
30073;BME280;16897;52.422;13.678;2022-08-21T00:48:24;101070.63;;;22.58;59.62
30073;BME280;16897;52.422;13.678;2022-08-21T00:52:28;101103.66;;;22.73;59.84
30073;BME280;16897;52.422;13.678;2022-08-21T00:56:30;101126.09;;;22.88;59.58
30073;BME280;16897;52.422;13.678;2022-08-21T01:00:36;101150.53;;;23.02;59.72
30073;BME280;16897;52.422;13.678;2022-08-21T01:04:39;101118.56;;;22.84;60.01
30073;BME280;16897;52.422;13.678;2022-08-21T01:08:41;101119.03;;;22.79;59.86
30073;BME280;16897;52.422;13.678;2022-08-21T01:12:42;101139.22;;;22.90;59.79
30073;BME280;16897;52.422;13.678;2022-08-21T01:16:46;101113.63;;;22.71;59.44
30073;BME280;16897;52.422;13.678;2022-08-21T01:25:06;101140.03;;;22.82;59.74
30073;BME280;16897;52.422;13.678;2022-08-21T01:33:22;101160.47;;;22.82;60.12
30073;BME280;16897;52.422;13.678;2022-08-21T01:37:25;101149.63;;;22.75;60.00
30073;BME280;16897;52.422;13.678;2022-08-21T01:41:26;101153.81;;;22.78;60.11
30073;BME280;16897;52.422;13.678;2022-08-21T01:45:28;101154.50;;;22.80;59.88
30073;BME280;16897;52.422;13.678;2022-08-21T01:49:29;101142.16;;;22.79;59.86
30073;BME280;16897;52.422;13.678;2022-08-21T01:53:32;101064.91;;;22.35;60.19
30073;BME280;16897;52.422;13.678;2022-08-21T01:57:36;101137.59;;;22.71;59.90
30073;BME280;16897;52.422;13.678;2022-08-21T02:01:38;101151.28;;;22.76;60.14
30073;BME280;16897;52.422;13.678;2022-08-21T02:05:40;101155.47;;;22.79;59.87
30073;BME280;16897;52.422;13.678;2022-08-21T02:09:42;101096.94;;;22.43;59.78
30073;BME280;16897;52.422;13.678;2022-08-21T02:13:44;101149.75;;;22.73;59.69
30073;BME280;16897;52.422;13.678;2022-08-21T02:17:48;101130.53;;;22.62;60.00
30073;BME280;16897;52.422;13.678;2022-08-21T02:21:50;101143.16;;;22.60;60.26
30073;BME280;16897;52.422;13.678;2022-08-21T02:25:51;101125.44;;;22.50;60.01
30073;BME280;16897;52.422;13.678;2022-08-21T02:29:55;101150.16;;;22.61;59.73
30073;BME280;16897;52.422;13.678;2022-08-21T02:33:57;101140.97;;;22.55;59.84
30073;BME280;16897;52.422;13.678;2022-08-21T02:38:02;101125.28;;;22.34;60.00
30073;BME280;16897;52.422;13.678;2022-08-21T02:42:04;101146.50;;;22.44;60.00
30073;BME280;16897;52.422;13.678;2022-08-21T02:46:07;101132.59;;;22.32;60.02
30073;BME280;16897;52.422;13.678;2022-08-21T02:50:09;101148.09;;;22.37;60.27
30073;BME280;16897;52.422;13.678;2022-08-21T02:54:10;101147.84;;;22.30;60.06
30073;BME280;16897;52.422;13.678;2022-08-21T02:58:13;101128.19;;;22.23;60.36
30073;BME280;16897;52.422;13.678;2022-08-21T03:02:16;101124.13;;;22.19;60.15
30073;BME280;16897;52.422;13.678;2022-08-21T03:06:19;101144.81;;;22.25;60.08
30073;BME280;16897;52.422;13.678;2022-08-21T03:10:21;101145.13;;;22.22;59.80
30073;BME280;16897;52.422;13.678;2022-08-21T03:14:23;101143.44;;;22.21;60.11
30073;BME280;16897;52.422;13.678;2022-08-21T03:18:25;101155.19;;;22.28;60.29
30073;BME280;16897;52.422;13.678;2022-08-21T03:22:26;101142.75;;;22.19;60.12
30073;BME280;16897;52.422;13.678;2022-08-21T03:26:28;101096.47;;;21.84;60.04
30073;BME280;16897;52.422;13.678;2022-08-21T03:30:30;101084.47;;;21.80;59.90
30073;BME280;16897;52.422;13.678;2022-08-21T03:34:36;101121.44;;;22.01;59.78
30073;BME280;16897;52.422;13.678;2022-08-21T03:38:40;101081.16;;;21.68;59.91
30073;BME280;16897;52.422;13.678;2022-08-21T03:42:41;101108.00;;;21.75;60.14
30073;BME280;16897;52.422;13.678;2022-08-21T03:46:43;101114.16;;;21.75;60.18
30073;BME280;16897;52.422;13.678;2022-08-21T03:50:44;101088.63;;;21.55;60.39
30073;BME280;16897;52.422;13.678;2022-08-21T03:54:48;101163.13;;;22.00;60.26
30073;BME280;16897;52.422;13.678;2022-08-21T03:58:52;101117.81;;;21.74;60.14
30073;BME280;16897;52.422;13.678;2022-08-21T04:02:53;101113.22;;;21.67;60.02
30073;BME280;16897;52.422;13.678;2022-08-21T04:06:56;101110.47;;;21.58;60.28
30073;BME280;16897;52.422;13.678;2022-08-21T04:10:58;101095.53;;;21.48;59.99
30073;BME280;16897;52.422;13.678;2022-08-21T04:15:00;101157.91;;;21.81;60.03
30073;BME280;16897;52.422;13.678;2022-08-21T04:19:03;101144.81;;;21.70;60.20
30073;BME280;16897;52.422;13.678;2022-08-21T04:23:05;101170.25;;;21.82;60.40
30073;BME280;16897;52.422;13.678;2022-08-21T04:27:14;101162.84;;;21.76;60.32
30073;BME280;16897;52.422;13.678;2022-08-21T04:31:15;101109.56;;;21.40;60.17
30073;BME280;16897;52.422;13.678;2022-08-21T04:35:19;101156.44;;;21.69;59.92
30073;BME280;16897;52.422;13.678;2022-08-21T04:39:28;101141.97;;;21.53;60.46
30073;BME280;16897;52.422;13.678;2022-08-21T04:43:29;101168.50;;;21.63;60.42
30073;BME280;16897;52.422;13.678;2022-08-21T04:47:31;101169.63;;;21.60;60.25
30073;BME280;16897;52.422;13.678;2022-08-21T04:51:35;101154.41;;;21.53;60.13
30073;BME280;16897;52.422;13.678;2022-08-21T04:55:38;101180.81;;;21.54;60.55
30073;BME280;16897;52.422;13.678;2022-08-21T04:59:46;101127.47;;;21.28;60.41
30073;BME280;16897;52.422;13.678;2022-08-21T05:03:49;101171.63;;;21.49;60.27
30073;BME280;16897;52.422;13.678;2022-08-21T05:07:52;101167.72;;;21.43;60.45
30073;BME280;16897;52.422;13.678;2022-08-21T05:11:54;101144.94;;;21.31;60.19
30073;BME280;16897;52.422;13.678;2022-08-21T05:15:56;101176.41;;;21.45;60.12
30073;BME280;16897;52.422;13.678;2022-08-21T05:19:58;101180.72;;;21.46;60.29
30073;BME280;16897;52.422;13.678;2022-08-21T05:23:59;101196.66;;;21.46;60.12
30073;BME280;16897;52.422;13.678;2022-08-21T05:28:01;101177.66;;;21.31;60.11
30073;BME280;16897;52.422;13.678;2022-08-21T05:32:10;101169.81;;;21.30;60.41
30073;BME280;16897;52.422;13.678;2022-08-21T05:36:12;101128.91;;;21.03;60.43
30073;BME280;16897;52.422;13.678;2022-08-21T05:40:13;101192.19;;;21.37;60.36
30073;BME280;16897;52.422;13.678;2022-08-21T05:44:15;101185.63;;;21.41;60.34
30073;BME280;16897;52.422;13.678;2022-08-21T05:48:20;101194.59;;;21.40;59.97
30073;BME280;16897;52.422;13.678;2022-08-21T05:52:22;101202.69;;;21.38;60.37
30073;BME280;16897;52.422;13.678;2022-08-21T05:56:24;101194.72;;;21.29;59.96
30073;BME280;16897;52.422;13.678;2022-08-21T06:00:25;101188.47;;;21.20;60.02
30073;BME280;16897;52.422;13.678;2022-08-21T06:04:27;101151.44;;;20.99;60.25
30073;BME280;16897;52.422;13.678;2022-08-21T06:08:29;101181.31;;;21.11;60.47
30073;BME280;16897;52.422;13.678;2022-08-21T06:12:31;101150.19;;;20.93;60.57
30073;BME280;16897;52.422;13.678;2022-08-21T06:16:32;101146.69;;;20.83;60.41
30073;BME280;16897;52.422;13.678;2022-08-21T06:20:34;101171.28;;;20.95;60.28
30073;BME280;16897;52.422;13.678;2022-08-21T06:24:35;101168.78;;;20.93;60.58
30073;BME280;16897;52.422;13.678;2022-08-21T06:28:38;101205.81;;;21.14;60.37
30073;BME280;16897;52.422;13.678;2022-08-21T06:32:40;101199.78;;;21.12;60.35
30073;BME280;16897;52.422;13.678;2022-08-21T06:36:41;101192.66;;;21.13;60.31
30073;BME280;16897;52.422;13.678;2022-08-21T06:40:43;101115.97;;;20.61;60.18
30073;BME280;16897;52.422;13.678;2022-08-21T06:44:45;101205.09;;;21.12;60.41
30073;BME280;16897;52.422;13.678;2022-08-21T06:48:47;101184.97;;;21.00;60.08
30073;BME280;16897;52.422;13.678;2022-08-21T06:52:48;101170.84;;;20.90;60.19
30073;BME280;16897;52.422;13.678;2022-08-21T06:56:50;101168.31;;;20.98;60.54
30073;BME280;16897;52.422;13.678;2022-08-21T07:00:51;101190.81;;;21.13;60.35
30073;BME280;16897;52.422;13.678;2022-08-21T07:04:52;101196.00;;;21.15;60.35
30073;BME280;16897;52.422;13.678;2022-08-21T07:08:54;101176.44;;;21.06;60.30
30073;BME280;16897;52.422;13.678;2022-08-21T07:12:55;101129.09;;;20.82;60.59
30073;BME280;16897;52.422;13.678;2022-08-21T07:16:57;101195.00;;;21.26;60.36
30073;BME280;16897;52.422;13.678;2022-08-21T07:21:01;101195.97;;;21.25;60.34
30073;BME280;16897;52.422;13.678;2022-08-21T07:25:04;101143.88;;;21.04;60.35
30073;BME280;16897;52.422;13.678;2022-08-21T07:29:06;101153.63;;;21.13;60.51
30073;BME280;16897;52.422;13.678;2022-08-21T07:33:08;101108.81;;;20.91;60.11
30073;BME280;16897;52.422;13.678;2022-08-21T07:37:09;101153.47;;;21.25;60.55
30073;BME280;16897;52.422;13.678;2022-08-21T07:41:15;101207.13;;;21.57;60.37
30073;BME280;16897;52.422;13.678;2022-08-21T07:45:21;101179.75;;;21.37;60.49
30073;BME280;16897;52.422;13.678;2022-08-21T07:49:25;101146.38;;;21.15;60.40
30073;BME280;16897;52.422;13.678;2022-08-21T07:53:30;101172.34;;;21.41;60.53
30073;BME280;16897;52.422;13.678;2022-08-21T07:57:32;101155.94;;;21.36;60.23
30073;BME280;16897;52.422;13.678;2022-08-21T08:01:34;101201.34;;;21.72;59.78
30073;BME280;16897;52.422;13.678;2022-08-21T08:05:35;101140.31;;;21.42;60.33
30073;BME280;16897;52.422;13.678;2022-08-21T08:09:38;101204.66;;;21.83;60.25
30073;BME280;16897;52.422;13.678;2022-08-21T08:13:41;101196.38;;;21.86;60.17
30073;BME280;16897;52.422;13.678;2022-08-21T08:17:43;101199.00;;;21.96;60.48
30073;BME280;16897;52.422;13.678;2022-08-21T08:21:45;101198.09;;;22.05;60.20
30073;BME280;16897;52.422;13.678;2022-08-21T08:25:46;101212.84;;;22.27;59.93
30073;BME280;16897;52.422;13.678;2022-08-21T08:29:48;101193.66;;;22.34;59.95
30073;BME280;16897;52.422;13.678;2022-08-21T08:33:50;101179.03;;;22.38;59.90
30073;BME280;16897;52.422;13.678;2022-08-21T08:37:51;101201.28;;;22.64;59.75
30073;BME280;16897;52.422;13.678;2022-08-21T08:42:07;101186.75;;;22.59;59.94
30073;BME280;16897;52.422;13.678;2022-08-21T08:46:14;101204.47;;;22.68;59.71
30073;BME280;16897;52.422;13.678;2022-08-21T08:50:22;101201.78;;;22.68;59.58
30073;BME280;16897;52.422;13.678;2022-08-21T08:54:34;101190.31;;;22.67;59.63
30073;BME280;16897;52.422;13.678;2022-08-21T08:58:41;101190.19;;;22.69;59.67
30073;BME280;16897;52.422;13.678;2022-08-21T09:02:45;101115.53;;;22.25;59.50
30073;BME280;16897;52.422;13.678;2022-08-21T09:07:13;101197.81;;;22.90;59.43
30073;BME280;16897;52.422;13.678;2022-08-21T09:11:32;101194.88;;;22.93;59.79
30073;BME280;16897;52.422;13.678;2022-08-21T09:15:58;101174.66;;;22.82;59.62
30073;BME280;16897;52.422;13.678;2022-08-21T09:20:37;101204.94;;;22.99;59.37
30073;BME280;16897;52.422;13.678;2022-08-21T09:28:41;101191.44;;;23.01;59.64
30073;BME280;16897;52.422;13.678;2022-08-21T09:32:43;101191.84;;;23.06;59.16
30073;BME280;16897;52.422;13.678;2022-08-21T09:36:47;101192.75;;;23.14;59.48
30073;BME280;16897;52.422;13.678;2022-08-21T09:41:15;101122.84;;;22.77;59.24
30073;BME280;16897;52.422;13.678;2022-08-21T09:45:21;101197.00;;;23.25;59.34
30073;BME280;16897;52.422;13.678;2022-08-21T09:49:34;101190.34;;;23.29;59.06
30073;BME280;16897;52.422;13.678;2022-08-21T09:53:39;101199.59;;;23.43;59.23
30073;BME280;16897;52.422;13.678;2022-08-21T09:57:43;101194.13;;;23.45;58.87
30073;BME280;16897;52.422;13.678;2022-08-21T10:01:49;101201.16;;;23.54;58.98
30073;BME280;16897;52.422;13.678;2022-08-21T10:06:03;101160.75;;;23.40;58.84
30073;BME280;16897;52.422;13.678;2022-08-21T10:10:29;101197.25;;;23.66;58.82
30073;BME280;16897;52.422;13.678;2022-08-21T10:23:35;101191.69;;;23.85;58.42
30073;BME280;16897;52.422;13.678;2022-08-21T10:27:58;101182.31;;;23.81;58.54
30073;BME280;16897;52.422;13.678;2022-08-21T10:32:15;101206.72;;;23.95;58.40
30073;BME280;16897;52.422;13.678;2022-08-21T10:36:43;101178.19;;;23.87;58.67
30073;BME280;16897;52.422;13.678;2022-08-21T10:50:08;101203.50;;;24.17;58.26
30073;BME280;16897;52.422;13.678;2022-08-21T10:54:39;101184.81;;;24.17;58.35
30073;BME280;16897;52.422;13.678;2022-08-21T11:03:42;101200.94;;;24.50;58.23
30073;BME280;16897;52.422;13.678;2022-08-21T11:07:53;101194.25;;;24.46;58.17
30073;BME280;16897;52.422;13.678;2022-08-21T11:12:20;101213.63;;;24.64;58.07
30073;BME280;16897;52.422;13.678;2022-08-21T11:25:19;101189.25;;;24.59;57.96
30073;BME280;16897;52.422;13.678;2022-08-21T11:29:30;101191.78;;;24.61;57.76
30073;BME280;16897;52.422;13.678;2022-08-21T11:50:29;101182.94;;;24.93;57.29
30073;BME280;16897;52.422;13.678;2022-08-21T11:54:43;101202.94;;;25.13;57.58
30073;BME280;16897;52.422;13.678;2022-08-21T11:59:08;101197.13;;;25.26;57.29
30073;BME280;16897;52.422;13.678;2022-08-21T12:03:16;101132.16;;;25.01;57.58
30073;BME280;16897;52.422;13.678;2022-08-21T12:08:00;101183.91;;;25.49;57.13
30073;BME280;16897;52.422;13.678;2022-08-21T12:12:06;101186.16;;;25.69;56.86
30073;BME280;16897;52.422;13.678;2022-08-21T12:16:11;101167.25;;;25.70;56.91
30073;BME280;16897;52.422;13.678;2022-08-21T12:20:39;101176.78;;;25.73;56.60
30073;BME280;16897;52.422;13.678;2022-08-21T12:24:48;101168.97;;;25.63;56.57
30073;BME280;16897;52.422;13.678;2022-08-21T12:28:50;101178.81;;;25.71;56.91
30073;BME280;16897;52.422;13.678;2022-08-21T12:32:58;101169.28;;;25.68;56.82
30073;BME280;16897;52.422;13.678;2022-08-21T12:37:15;101180.00;;;25.68;56.46
30073;BME280;16897;52.422;13.678;2022-08-21T12:45:48;101169.06;;;25.78;56.66
30073;BME280;16897;52.422;13.678;2022-08-21T12:50:04;101179.41;;;25.89;56.60
30073;BME280;16897;52.422;13.678;2022-08-21T12:54:07;101182.06;;;25.97;56.22
30073;BME280;16897;52.422;13.678;2022-08-21T12:58:19;101169.53;;;25.98;56.01
30073;BME280;16897;52.422;13.678;2022-08-21T13:02:25;101169.50;;;26.06;55.53
30073;BME280;16897;52.422;13.678;2022-08-21T13:06:28;101168.25;;;26.17;55.74
30073;BME280;16897;52.422;13.678;2022-08-21T13:10:31;101161.47;;;26.29;55.58
30073;BME280;16897;52.422;13.678;2022-08-21T13:14:39;101171.78;;;26.40;55.35
30073;BME280;16897;52.422;13.678;2022-08-21T13:18:54;101173.91;;;26.53;55.11
30073;BME280;16897;52.422;13.678;2022-08-21T13:22:57;101161.34;;;26.54;55.23
30073;BME280;16897;52.422;13.678;2022-08-21T13:27:00;101137.09;;;26.47;55.17
30073;BME280;16897;52.422;13.678;2022-08-21T13:31:02;101166.53;;;26.55;55.06
30073;BME280;16897;52.422;13.678;2022-08-21T13:35:19;101156.81;;;26.54;54.93
30073;BME280;16897;52.422;13.678;2022-08-21T13:39:21;101174.31;;;26.65;54.95
30073;BME280;16897;52.422;13.678;2022-08-21T13:43:26;101160.75;;;26.66;55.06
30073;BME280;16897;52.422;13.678;2022-08-21T13:47:29;101162.16;;;26.77;54.87
30073;BME280;16897;52.422;13.678;2022-08-21T13:51:31;101171.63;;;26.88;54.54
30073;BME280;16897;52.422;13.678;2022-08-21T13:55:37;101166.63;;;26.85;54.60
30073;BME280;16897;52.422;13.678;2022-08-21T13:59:39;101167.00;;;26.97;54.31
30073;BME280;16897;52.422;13.678;2022-08-21T14:03:53;101156.59;;;27.02;54.03
30073;BME280;16897;52.422;13.678;2022-08-21T14:08:09;101154.94;;;27.01;54.04
30073;BME280;16897;52.422;13.678;2022-08-21T14:20:30;101132.16;;;26.97;53.71
30073;BME280;16897;52.422;13.678;2022-08-21T14:24:32;101113.31;;;26.90;53.74
30073;BME280;16897;52.422;13.678;2022-08-21T14:28:39;101128.94;;;27.01;53.59
30073;BME280;16897;52.422;13.678;2022-08-21T14:32:41;101128.88;;;27.09;52.96
30073;BME280;16897;52.422;13.678;2022-08-21T14:36:44;101130.81;;;27.15;53.18
30073;BME280;16897;52.422;13.678;2022-08-21T14:40:51;101122.97;;;27.14;53.48
30073;BME280;16897;52.422;13.678;2022-08-21T14:44:53;101131.63;;;27.16;53.17
30073;BME280;16897;52.422;13.678;2022-08-21T14:48:58;101131.00;;;27.14;53.22
30073;BME280;16897;52.422;13.678;2022-08-21T14:52:59;101149.06;;;27.20;52.86
30073;BME280;16897;52.422;13.678;2022-08-21T14:57:05;101154.78;;;27.17;53.18
30073;BME280;16897;52.422;13.678;2022-08-21T15:01:09;101151.31;;;27.08;52.71
30073;BME280;16897;52.422;13.678;2022-08-21T15:05:11;101135.88;;;26.96;52.67
30073;BME280;16897;52.422;13.678;2022-08-21T15:09:13;101129.56;;;26.88;52.65
30073;BME280;16897;52.422;13.678;2022-08-21T15:13:14;101087.34;;;26.53;52.91
30073;BME280;16897;52.422;13.678;2022-08-21T15:17:16;101142.22;;;26.80;52.84
30073;BME280;16897;52.422;13.678;2022-08-21T15:21:18;101141.69;;;26.84;52.94
30073;BME280;16897;52.422;13.678;2022-08-21T15:25:19;101128.97;;;26.78;52.74
30073;BME280;16897;52.422;13.678;2022-08-21T15:29:20;101135.28;;;26.85;52.53
30073;BME280;16897;52.422;13.678;2022-08-21T15:33:22;101043.13;;;26.34;52.68
30073;BME280;16897;52.422;13.678;2022-08-21T15:37:24;101139.47;;;26.88;52.34
30073;BME280;16897;52.422;13.678;2022-08-21T15:41:26;101098.28;;;26.66;52.41
30073;BME280;16897;52.422;13.678;2022-08-21T15:45:28;101135.81;;;26.81;52.13
30073;BME280;16897;52.422;13.678;2022-08-21T15:49:30;101121.38;;;26.67;52.07
30073;BME280;16897;52.422;13.678;2022-08-21T15:53:31;101105.78;;;26.47;52.38
30073;BME280;16897;52.422;13.678;2022-08-21T15:57:37;101151.22;;;26.64;52.05
30073;BME280;16897;52.422;13.678;2022-08-21T16:01:39;101144.06;;;26.56;52.07
30073;BME280;16897;52.422;13.678;2022-08-21T16:05:40;101103.94;;;26.25;52.28
30073;BME280;16897;52.422;13.678;2022-08-21T16:09:42;101136.59;;;26.43;52.30
30073;BME280;16897;52.422;13.678;2022-08-21T16:13:44;101148.63;;;26.47;51.83
30073;BME280;16897;52.422;13.678;2022-08-21T16:17:47;101134.34;;;26.32;51.94
30073;BME280;16897;52.422;13.678;2022-08-21T16:21:50;101135.53;;;26.30;51.97
30073;BME280;16897;52.422;13.678;2022-08-21T16:25:51;101119.75;;;26.12;52.08
30073;BME280;16897;52.422;13.678;2022-08-21T16:29:52;101148.84;;;26.15;52.14
30073;BME280;16897;52.422;13.678;2022-08-21T16:33:55;101130.72;;;25.94;51.97
30073;BME280;16897;52.422;13.678;2022-08-21T16:37:57;101129.94;;;25.85;51.74
30073;BME280;16897;52.422;13.678;2022-08-21T16:41:59;101140.47;;;25.87;52.02
30073;BME280;16897;52.422;13.678;2022-08-21T16:46:01;101134.31;;;25.70;51.95
30073;BME280;16897;52.422;13.678;2022-08-21T16:50:03;101110.16;;;25.55;52.09
30073;BME280;16897;52.422;13.678;2022-08-21T16:54:06;101136.69;;;25.65;51.92
30073;BME280;16897;52.422;13.678;2022-08-21T16:58:12;101149.06;;;25.66;51.82
30073;BME280;16897;52.422;13.678;2022-08-21T17:06:28;101134.44;;;25.37;52.11
30073;BME280;16897;52.422;13.678;2022-08-21T17:10:31;101139.16;;;25.27;51.64
30073;BME280;16897;52.422;13.678;2022-08-21T17:14:33;101118.47;;;25.04;51.92
30073;BME280;16897;52.422;13.678;2022-08-21T17:18:39;101143.31;;;25.13;51.98
30073;BME280;16897;52.422;13.678;2022-08-21T17:22:41;101072.56;;;24.60;52.06
30073;BME280;16897;52.422;13.678;2022-08-21T17:26:42;101140.84;;;24.95;51.93
30073;BME280;16897;52.422;13.678;2022-08-21T17:30:44;101110.31;;;24.65;52.04
30073;BME280;16897;52.422;13.678;2022-08-21T17:34:46;101148.03;;;24.78;51.91
30073;BME280;16897;52.422;13.678;2022-08-21T17:38:47;101150.88;;;24.68;51.51
30073;BME280;16897;52.422;13.678;2022-08-21T17:42:49;101133.16;;;24.51;51.53
30073;BME280;16897;52.422;13.678;2022-08-21T17:46:50;101141.66;;;24.46;51.67
30073;BME280;16897;52.422;13.678;2022-08-21T17:50:51;101142.97;;;24.42;52.03
30073;BME280;16897;52.422;13.678;2022-08-21T17:54:53;101131.59;;;24.24;52.02
30073;BME280;16897;52.422;13.678;2022-08-21T17:58:54;101152.44;;;24.20;51.85
30073;BME280;16897;52.422;13.678;2022-08-21T18:03:06;101174.28;;;24.16;52.24
30073;BME280;16897;52.422;13.678;2022-08-21T18:07:12;101145.00;;;23.90;52.10
30073;BME280;16897;52.422;13.678;2022-08-21T18:11:14;101160.72;;;23.93;51.98
30073;BME280;16897;52.422;13.678;2022-08-21T18:15:17;101165.50;;;23.81;52.26
30073;BME280;16897;52.422;13.678;2022-08-21T18:19:19;101178.56;;;23.66;51.83
30073;BME280;16897;52.422;13.678;2022-08-21T18:23:25;101186.16;;;23.53;52.28
30073;BME280;16897;52.422;13.678;2022-08-21T18:27:26;101167.19;;;23.30;52.46
30073;BME280;16897;52.422;13.678;2022-08-21T18:31:29;101160.47;;;23.17;52.14
30073;BME280;16897;52.422;13.678;2022-08-21T18:35:31;101179.56;;;23.13;52.34
30073;BME280;16897;52.422;13.678;2022-08-21T18:39:33;101171.53;;;23.05;52.30
30073;BME280;16897;52.422;13.678;2022-08-21T18:43:34;101190.16;;;23.05;52.59
30073;BME280;16897;52.422;13.678;2022-08-21T18:47:41;101148.63;;;22.76;52.49
30073;BME280;16897;52.422;13.678;2022-08-21T18:51:45;101195.13;;;23.00;52.63
30073;BME280;16897;52.422;13.678;2022-08-21T18:55:47;101187.34;;;22.88;52.42
30073;BME280;16897;52.422;13.678;2022-08-21T18:59:49;101171.44;;;22.79;52.71
30073;BME280;16897;52.422;13.678;2022-08-21T19:03:50;101154.50;;;22.62;52.28
30073;BME280;16897;52.422;13.678;2022-08-21T19:07:52;101194.25;;;22.81;52.29
30073;BME280;16897;52.422;13.678;2022-08-21T19:11:55;101122.25;;;22.29;52.28
30073;BME280;16897;52.422;13.678;2022-08-21T19:15:56;101167.13;;;22.42;52.44
30073;BME280;16897;52.422;13.678;2022-08-21T19:20:11;101177.22;;;22.38;52.36
30073;BME280;16897;52.422;13.678;2022-08-21T19:24:14;101175.06;;;22.24;52.85
30073;BME280;16897;52.422;13.678;2022-08-21T19:28:20;101122.75;;;21.87;52.75
30073;BME280;16897;52.422;13.678;2022-08-21T19:32:23;101165.34;;;22.05;52.83
30073;BME280;16897;52.422;13.678;2022-08-21T19:36:24;101201.97;;;22.21;52.94
30073;BME280;16897;52.422;13.678;2022-08-21T19:40:26;101199.19;;;22.13;52.95
30073;BME280;16897;52.422;13.678;2022-08-21T19:44:28;101192.38;;;22.00;52.67
30073;BME280;16897;52.422;13.678;2022-08-21T19:48:31;101158.41;;;21.67;52.80
30073;BME280;16897;52.422;13.678;2022-08-21T19:52:34;101188.47;;;21.77;52.75
30073;BME280;16897;52.422;13.678;2022-08-21T19:56:36;101198.00;;;21.70;52.63
30073;BME280;16897;52.422;13.678;2022-08-21T20:00:41;101185.47;;;21.52;52.55
30073;BME280;16897;52.422;13.678;2022-08-21T20:04:43;101196.94;;;21.53;52.90
30073;BME280;16897;52.422;13.678;2022-08-21T20:08:45;101183.25;;;21.38;52.80
30073;BME280;16897;52.422;13.678;2022-08-21T20:12:48;101150.28;;;21.11;52.89
30073;BME280;16897;52.422;13.678;2022-08-21T20:16:50;101140.97;;;20.88;52.87
30073;BME280;16897;52.422;13.678;2022-08-21T20:20:52;101215.41;;;21.25;52.79
30073;BME280;16897;52.422;13.678;2022-08-21T20:24:54;101202.97;;;21.06;52.67
30073;BME280;16897;52.422;13.678;2022-08-21T20:28:56;101213.59;;;21.06;53.31
30073;BME280;16897;52.422;13.678;2022-08-21T20:32:59;101112.59;;;20.40;53.05
30073;BME280;16897;52.422;13.678;2022-08-21T20:37:01;101209.00;;;20.89;53.21
30073;BME280;16897;52.422;13.678;2022-08-21T20:41:02;101126.16;;;20.37;53.17
30073;BME280;16897;52.422;13.678;2022-08-21T20:45:04;101193.78;;;20.71;53.53
30073;BME280;16897;52.422;13.678;2022-08-21T20:49:06;101214.19;;;20.81;53.46
30073;BME280;16897;52.422;13.678;2022-08-21T20:53:35;101216.81;;;20.71;53.34
30073;BME280;16897;52.422;13.678;2022-08-21T20:57:54;101208.81;;;20.51;53.24
30073;BME280;16897;52.422;13.678;2022-08-21T21:02:11;101211.63;;;20.50;53.33
30073;BME280;16897;52.422;13.678;2022-08-21T21:06:22;101198.16;;;20.32;53.36
30073;BME280;16897;52.422;13.678;2022-08-21T21:10:34;101219.50;;;20.30;53.36
30073;BME280;16897;52.422;13.678;2022-08-21T21:14:40;101195.88;;;20.08;53.26
30073;BME280;16897;52.422;13.678;2022-08-21T21:18:50;101203.72;;;20.09;53.54
30073;BME280;16897;52.422;13.678;2022-08-21T21:22:55;101209.00;;;20.09;53.71
30073;BME280;16897;52.422;13.678;2022-08-21T21:31:15;101201.72;;;20.02;54.06
30073;BME280;16897;52.422;13.678;2022-08-21T21:35:19;101207.03;;;20.02;53.88
30073;BME280;16897;52.422;13.678;2022-08-21T21:39:29;101220.00;;;20.05;53.98
30073;BME280;16897;52.422;13.678;2022-08-21T21:43:55;101222.53;;;20.06;53.67
30073;BME280;16897;52.422;13.678;2022-08-21T21:57:26;101224.88;;;20.00;53.86
30073;BME280;16897;52.422;13.678;2022-08-21T22:06:08;101232.09;;;19.88;53.68
30073;BME280;16897;52.422;13.678;2022-08-21T22:14:19;101227.25;;;19.72;53.55
30073;BME280;16897;52.422;13.678;2022-08-21T22:18:50;101247.94;;;19.78;53.67
30073;BME280;16897;52.422;13.678;2022-08-21T22:22:54;101226.06;;;19.65;53.99
30073;BME280;16897;52.422;13.678;2022-08-21T22:27:02;101242.59;;;19.69;53.83
30073;BME280;16897;52.422;13.678;2022-08-21T22:35:22;101234.66;;;19.57;53.69
30073;BME280;16897;52.422;13.678;2022-08-21T22:39:30;101234.63;;;19.48;54.08
30073;BME280;16897;52.422;13.678;2022-08-21T22:43:31;101223.66;;;19.31;53.86
30073;BME280;16897;52.422;13.678;2022-08-21T22:51:39;101229.50;;;19.14;54.02
30073;BME280;16897;52.422;13.678;2022-08-21T22:55:42;101204.56;;;18.95;53.77